<?xml version="1.0" encoding="utf-8"?>
<gpx xmlns:xsi="http://www.w3.org/2001/XMLSchema-instance" xmlns:xsd="http://www.w3.org/2001/XMLSchema" version="1.1" creator="Shapelink.com" xmlns="http://www.topografix.com/GPX/1/1" xmlns:gpxtpx="http://www.garmin.com/xmlschemas/TrackPointExtension/v1">
  <metadata>
    <name>Cycling 12.14 km, 2020-06-09</name>
    <desc></desc>
    <author><name>Marian Moron</name></author> 
    <time>2020-06-09T18:38:54Z</time>
  </metadata>
  <trk>
    <name>Cycling 12.14 km, 2020-06-09</name>
    <trkseg>
      <trkpt lat="51.228762377687" lon="4.448783781882">
        <ele>0.8</ele>
        <time>2020-06-09T18:38:54Z</time>
      </trkpt>
      <trkpt lat="51.228834126751" lon="4.448734244853">
        <ele>0</ele>
        <time>2020-06-09T18:38:57Z</time>
      </trkpt>
      <trkpt lat="51.228857512252" lon="4.448758217087">
        <ele>0</ele>
        <time>2020-06-09T18:39:00Z</time>
      </trkpt>
      <trkpt lat="51.2287814046" lon="4.448740615097">
        <ele>0</ele>
        <time>2020-06-09T18:39:04Z</time>
      </trkpt>
      <trkpt lat="51.228789199767" lon="4.448718486881">
        <ele>0</ele>
        <time>2020-06-09T18:39:06Z</time>
      </trkpt>
      <trkpt lat="51.228848795076" lon="4.448730640636">
        <ele>0</ele>
        <time>2020-06-09T18:39:10Z</time>
      </trkpt>
      <trkpt lat="51.228842005737" lon="4.448772382498">
        <ele>0</ele>
        <time>2020-06-09T18:39:12Z</time>
      </trkpt>
      <trkpt lat="51.228801018246" lon="4.448792918153">
        <ele>0</ele>
        <time>2020-06-09T18:39:14Z</time>
      </trkpt>
      <trkpt lat="51.228785008817" lon="4.448761486028">
        <ele>0</ele>
        <time>2020-06-09T18:39:16Z</time>
      </trkpt>
      <trkpt lat="51.228833120923" lon="4.44872359984">
        <ele>0</ele>
        <time>2020-06-09T18:39:21Z</time>
      </trkpt>
      <trkpt lat="51.228838569158" lon="4.448808927582">
        <ele>0.6</ele>
        <time>2020-06-09T18:39:24Z</time>
      </trkpt>
      <trkpt lat="51.228671350253" lon="4.449019983824">
        <ele>1.6</ele>
        <time>2020-06-09T18:39:33Z</time>
      </trkpt>
      <trkpt lat="51.228646372191" lon="4.448969021872">
        <ele>1.6</ele>
        <time>2020-06-09T18:39:35Z</time>
      </trkpt>
      <trkpt lat="51.228985755322" lon="4.448437357955">
        <ele>1.6</ele>
        <time>2020-06-09T18:39:58Z</time>
      </trkpt>
      <trkpt lat="51.22864394144" lon="4.447766051584">
        <ele>2.2</ele>
        <time>2020-06-09T18:40:23Z</time>
      </trkpt>
      <trkpt lat="51.228307911069" lon="4.447161716594">
        <ele>2.2</ele>
        <time>2020-06-09T18:40:47Z</time>
      </trkpt>
      <trkpt lat="51.227860988161" lon="4.447697822918">
        <ele>3</ele>
        <time>2020-06-09T18:41:08Z</time>
      </trkpt>
      <trkpt lat="51.227415825452" lon="4.448262511521">
        <ele>6.8</ele>
        <time>2020-06-09T18:41:26Z</time>
      </trkpt>
      <trkpt lat="51.227070910267" lon="4.448926860915">
        <ele>7.2</ele>
        <time>2020-06-09T18:41:43Z</time>
      </trkpt>
      <trkpt lat="51.227029336043" lon="4.449174797517">
        <ele>7.2</ele>
        <time>2020-06-09T18:41:49Z</time>
      </trkpt>
      <trkpt lat="51.227004274162" lon="4.44923489574">
        <ele>7</ele>
        <time>2020-06-09T18:41:51Z</time>
      </trkpt>
      <trkpt lat="51.226981978308" lon="4.449329527391">
        <ele>7</ele>
        <time>2020-06-09T18:41:54Z</time>
      </trkpt>
      <trkpt lat="51.226903104629" lon="4.449331455228">
        <ele>6.8</ele>
        <time>2020-06-09T18:42:02Z</time>
      </trkpt>
      <trkpt lat="51.226870582857" lon="4.449356098014">
        <ele>6.4</ele>
        <time>2020-06-09T18:42:05Z</time>
      </trkpt>
      <trkpt lat="51.226430114012" lon="4.449907878491">
        <ele>4</ele>
        <time>2020-06-09T18:42:29Z</time>
      </trkpt>
      <trkpt lat="51.226229870421" lon="4.450065625849">
        <ele>3.6</ele>
        <time>2020-06-09T18:42:39Z</time>
      </trkpt>
      <trkpt lat="51.226178070279" lon="4.449968731085">
        <ele>4</ele>
        <time>2020-06-09T18:42:44Z</time>
      </trkpt>
      <trkpt lat="51.226563470041" lon="4.449357606756">
        <ele>2</ele>
        <time>2020-06-09T18:43:04Z</time>
      </trkpt>
      <trkpt lat="51.226569505009" lon="4.449267249874">
        <ele>2</ele>
        <time>2020-06-09T18:43:06Z</time>
      </trkpt>
      <trkpt lat="51.226291309748" lon="4.448775483801">
        <ele>1.8</ele>
        <time>2020-06-09T18:43:20Z</time>
      </trkpt>
      <trkpt lat="51.225947316572" lon="4.449443353593">
        <ele>0</ele>
        <time>2020-06-09T18:43:39Z</time>
      </trkpt>
      <trkpt lat="51.225411294067" lon="4.449652565817">
        <ele>0</ele>
        <time>2020-06-09T18:43:56Z</time>
      </trkpt>
      <trkpt lat="51.224926233514" lon="4.449973844044">
        <ele>0.2</ele>
        <time>2020-06-09T18:44:10Z</time>
      </trkpt>
      <trkpt lat="51.224827243275" lon="4.450123544778">
        <ele>0.4</ele>
        <time>2020-06-09T18:44:13Z</time>
      </trkpt>
      <trkpt lat="51.224762786464" lon="4.450234269677">
        <ele>0.6</ele>
        <time>2020-06-09T18:44:15Z</time>
      </trkpt>
      <trkpt lat="51.224698664929" lon="4.450335606848">
        <ele>0.6</ele>
        <time>2020-06-09T18:44:17Z</time>
      </trkpt>
      <trkpt lat="51.224604536192" lon="4.450479775528">
        <ele>0.4</ele>
        <time>2020-06-09T18:44:20Z</time>
      </trkpt>
      <trkpt lat="51.224521303925" lon="4.450607180408">
        <ele>0.2</ele>
        <time>2020-06-09T18:44:23Z</time>
      </trkpt>
      <trkpt lat="51.224466737756" lon="4.450669374106">
        <ele>0</ele>
        <time>2020-06-09T18:44:25Z</time>
      </trkpt>
      <trkpt lat="51.224438993667" lon="4.450761072092">
        <ele>0</ele>
        <time>2020-06-09T18:44:27Z</time>
      </trkpt>
      <trkpt lat="51.223995423519" lon="4.45131193056">
        <ele>1.4</ele>
        <time>2020-06-09T18:44:46Z</time>
      </trkpt>
      <trkpt lat="51.223447498716" lon="4.45123565527">
        <ele>2.6</ele>
        <time>2020-06-09T18:45:05Z</time>
      </trkpt>
      <trkpt lat="51.2229056927" lon="4.451071118573">
        <ele>3</ele>
        <time>2020-06-09T18:45:25Z</time>
      </trkpt>
      <trkpt lat="51.222354247499" lon="4.451104310897">
        <ele>2</ele>
        <time>2020-06-09T18:45:43Z</time>
      </trkpt>
      <trkpt lat="51.221844376522" lon="4.451430031531">
        <ele>0</ele>
        <time>2020-06-09T18:46:00Z</time>
      </trkpt>
      <trkpt lat="51.221311036225" lon="4.451627676733">
        <ele>3</ele>
        <time>2020-06-09T18:46:20Z</time>
      </trkpt>
      <trkpt lat="51.220759171929" lon="4.451736138519">
        <ele>9.6</ele>
        <time>2020-06-09T18:46:36Z</time>
      </trkpt>
      <trkpt lat="51.220200183018" lon="4.451893969696">
        <ele>7.6</ele>
        <time>2020-06-09T18:46:52Z</time>
      </trkpt>
      <trkpt lat="51.219646223247" lon="4.451978710705">
        <ele>12</ele>
        <time>2020-06-09T18:47:07Z</time>
      </trkpt>
      <trkpt lat="51.219207682239" lon="4.452040988222">
        <ele>8</ele>
        <time>2020-06-09T18:47:18Z</time>
      </trkpt>
      <trkpt lat="51.21898128712" lon="4.452406439062">
        <ele>6.4</ele>
        <time>2020-06-09T18:47:27Z</time>
      </trkpt>
      <trkpt lat="51.219100729195" lon="4.452708271281">
        <ele>3.2</ele>
        <time>2020-06-09T18:47:33Z</time>
      </trkpt>
      <trkpt lat="51.219155882097" lon="4.452824109139">
        <ele>2.2</ele>
        <time>2020-06-09T18:47:35Z</time>
      </trkpt>
      <trkpt lat="51.219452433719" lon="4.453583593098">
        <ele>0.6</ele>
        <time>2020-06-09T18:47:48Z</time>
      </trkpt>
      <trkpt lat="51.219541533316" lon="4.453818034841">
        <ele>0</ele>
        <time>2020-06-09T18:47:54Z</time>
      </trkpt>
      <trkpt lat="51.219476573591" lon="4.45385164626">
        <ele>1.6</ele>
        <time>2020-06-09T18:48:02Z</time>
      </trkpt>
      <trkpt lat="51.219418487024" lon="4.453900680375">
        <ele>2.8</ele>
        <time>2020-06-09T18:48:05Z</time>
      </trkpt>
      <trkpt lat="51.219303906451" lon="4.45388936481">
        <ele>2.4</ele>
        <time>2020-06-09T18:48:09Z</time>
      </trkpt>
      <trkpt lat="51.218837202259" lon="4.45438138234">
        <ele>2</ele>
        <time>2020-06-09T18:48:27Z</time>
      </trkpt>
      <trkpt lat="51.218372090628" lon="4.454860407925">
        <ele>2.8</ele>
        <time>2020-06-09T18:48:46Z</time>
      </trkpt>
      <trkpt lat="51.218185258077" lon="4.455063669">
        <ele>2.6</ele>
        <time>2020-06-09T18:48:55Z</time>
      </trkpt>
      <trkpt lat="51.218123232017" lon="4.45524639442">
        <ele>1.6</ele>
        <time>2020-06-09T18:49:00Z</time>
      </trkpt>
      <trkpt lat="51.21762174294" lon="4.455681079754">
        <ele>2.6</ele>
        <time>2020-06-09T18:49:14Z</time>
      </trkpt>
      <trkpt lat="51.217139532233" lon="4.45611056831">
        <ele>3.2</ele>
        <time>2020-06-09T18:49:29Z</time>
      </trkpt>
      <trkpt lat="51.217093599421" lon="4.456855803039">
        <ele>4.8</ele>
        <time>2020-06-09T18:49:48Z</time>
      </trkpt>
      <trkpt lat="51.217205078691" lon="4.457735148168">
        <ele>2.2</ele>
        <time>2020-06-09T18:50:05Z</time>
      </trkpt>
      <trkpt lat="51.217325610413" lon="4.458570739779">
        <ele>0.6</ele>
        <time>2020-06-09T18:50:24Z</time>
      </trkpt>
      <trkpt lat="51.217414877648" lon="4.459432147642">
        <ele>0</ele>
        <time>2020-06-09T18:50:47Z</time>
      </trkpt>
      <trkpt lat="51.217543623632" lon="4.46028475451">
        <ele>4.6</ele>
        <time>2020-06-09T18:51:08Z</time>
      </trkpt>
      <trkpt lat="51.217819388142" lon="4.460996964553">
        <ele>9.2</ele>
        <time>2020-06-09T18:51:30Z</time>
      </trkpt>
      <trkpt lat="51.217825590748" lon="4.461029570144">
        <ele>9</ele>
        <time>2020-06-09T18:51:31Z</time>
      </trkpt>
      <trkpt lat="51.217803965446" lon="4.461924757064">
        <ele>8.4</ele>
        <time>2020-06-09T18:51:49Z</time>
      </trkpt>
      <trkpt lat="51.217804887455" lon="4.462098932946">
        <ele>6.2</ele>
        <time>2020-06-09T18:51:53Z</time>
      </trkpt>
      <trkpt lat="51.217789045664" lon="4.462164395585">
        <ele>5.2</ele>
        <time>2020-06-09T18:51:55Z</time>
      </trkpt>
      <trkpt lat="51.217809413681" lon="4.46231568888">
        <ele>3.4</ele>
        <time>2020-06-09T18:51:59Z</time>
      </trkpt>
      <trkpt lat="51.217780077031" lon="4.463202326262">
        <ele>3.8</ele>
        <time>2020-06-09T18:52:18Z</time>
      </trkpt>
      <trkpt lat="51.217720900817" lon="4.464061303374">
        <ele>1.6</ele>
        <time>2020-06-09T18:52:36Z</time>
      </trkpt>
      <trkpt lat="51.217684942466" lon="4.464953053715">
        <ele>1.4</ele>
        <time>2020-06-09T18:52:52Z</time>
      </trkpt>
      <trkpt lat="51.217645715174" lon="4.465847067169">
        <ele>1.2</ele>
        <time>2020-06-09T18:53:09Z</time>
      </trkpt>
      <trkpt lat="51.217634231971" lon="4.466754407844">
        <ele>4</ele>
        <time>2020-06-09T18:53:27Z</time>
      </trkpt>
      <trkpt lat="51.217599782362" lon="4.46763987176">
        <ele>7.4</ele>
        <time>2020-06-09T18:53:45Z</time>
      </trkpt>
      <trkpt lat="51.217543539813" lon="4.468540423096">
        <ele>2.8</ele>
        <time>2020-06-09T18:54:01Z</time>
      </trkpt>
      <trkpt lat="51.217528536212" lon="4.469407446832">
        <ele>1</ele>
        <time>2020-06-09T18:54:18Z</time>
      </trkpt>
      <trkpt lat="51.217497355544" lon="4.47027933207">
        <ele>0</ele>
        <time>2020-06-09T18:54:35Z</time>
      </trkpt>
      <trkpt lat="51.217441615909" lon="4.471172507334">
        <ele>0.4</ele>
        <time>2020-06-09T18:54:50Z</time>
      </trkpt>
      <trkpt lat="51.217404064997" lon="4.47206467677">
        <ele>6.2</ele>
        <time>2020-06-09T18:55:06Z</time>
      </trkpt>
      <trkpt lat="51.217399035857" lon="4.472961372432">
        <ele>3.4</ele>
        <time>2020-06-09T18:55:23Z</time>
      </trkpt>
      <trkpt lat="51.217329885182" lon="4.473816745327">
        <ele>1.8</ele>
        <time>2020-06-09T18:55:38Z</time>
      </trkpt>
      <trkpt lat="51.217267440027" lon="4.474712016066">
        <ele>3.8</ele>
        <time>2020-06-09T18:55:54Z</time>
      </trkpt>
      <trkpt lat="51.21727221771" lon="4.475144354468">
        <ele>5.4</ele>
        <time>2020-06-09T18:56:03Z</time>
      </trkpt>
      <trkpt lat="51.21721605898" lon="4.476013557498">
        <ele>5</ele>
        <time>2020-06-09T18:56:22Z</time>
      </trkpt>
      <trkpt lat="51.217224608518" lon="4.476058987396">
        <ele>5.4</ele>
        <time>2020-06-09T18:56:23Z</time>
      </trkpt>
      <trkpt lat="51.21719594242" lon="4.476214890736">
        <ele>5</ele>
        <time>2020-06-09T18:56:27Z</time>
      </trkpt>
      <trkpt lat="51.217214550238" lon="4.476361406348">
        <ele>4.2</ele>
        <time>2020-06-09T18:56:30Z</time>
      </trkpt>
      <trkpt lat="51.217192086746" lon="4.476564751242">
        <ele>4.2</ele>
        <time>2020-06-09T18:56:34Z</time>
      </trkpt>
      <trkpt lat="51.217066944979" lon="4.47741484354">
        <ele>6.4</ele>
        <time>2020-06-09T18:56:49Z</time>
      </trkpt>
      <trkpt lat="51.2165186849" lon="4.477555072727">
        <ele>6.2</ele>
        <time>2020-06-09T18:57:03Z</time>
      </trkpt>
      <trkpt lat="51.216177457751" lon="4.477621122099">
        <ele>4.6</ele>
        <time>2020-06-09T18:57:11Z</time>
      </trkpt>
      <trkpt lat="51.216101685375" lon="4.477669737119">
        <ele>4.4</ele>
        <time>2020-06-09T18:57:13Z</time>
      </trkpt>
      <trkpt lat="51.216034630175" lon="4.47774173764">
        <ele>4</ele>
        <time>2020-06-09T18:57:15Z</time>
      </trkpt>
      <trkpt lat="51.215680327262" lon="4.478465263248">
        <ele>5</ele>
        <time>2020-06-09T18:57:28Z</time>
      </trkpt>
      <trkpt lat="51.215650739155" lon="4.478517650123">
        <ele>5.4</ele>
        <time>2020-06-09T18:57:29Z</time>
      </trkpt>
      <trkpt lat="51.215545713948" lon="4.478838425436">
        <ele>5.6</ele>
        <time>2020-06-09T18:57:35Z</time>
      </trkpt>
      <trkpt lat="51.21553548803" lon="4.478729628374">
        <ele>4</ele>
        <time>2020-06-09T18:57:39Z</time>
      </trkpt>
      <trkpt lat="51.215560130816" lon="4.478728622546">
        <ele>4</ele>
        <time>2020-06-09T18:57:40Z</time>
      </trkpt>
      <trkpt lat="51.215542361188" lon="4.478813279736">
        <ele>3.6</ele>
        <time>2020-06-09T18:57:43Z</time>
      </trkpt>
      <trkpt lat="51.214989155788" lon="4.478704315036">
        <ele>3</ele>
        <time>2020-06-09T18:58:00Z</time>
      </trkpt>
      <trkpt lat="51.214522200139" lon="4.478208106556">
        <ele>4.8</ele>
        <time>2020-06-09T18:58:19Z</time>
      </trkpt>
      <trkpt lat="51.214083826769" lon="4.477640987202">
        <ele>5.8</ele>
        <time>2020-06-09T18:58:36Z</time>
      </trkpt>
      <trkpt lat="51.213711167495" lon="4.476969429374">
        <ele>6</ele>
        <time>2020-06-09T18:58:52Z</time>
      </trkpt>
      <trkpt lat="51.21355568325" lon="4.476100896896">
        <ele>5.4</ele>
        <time>2020-06-09T18:59:08Z</time>
      </trkpt>
      <trkpt lat="51.213448814025" lon="4.475254744091">
        <ele>4.2</ele>
        <time>2020-06-09T18:59:23Z</time>
      </trkpt>
      <trkpt lat="51.213320403317" lon="4.474367855252">
        <ele>5.6</ele>
        <time>2020-06-09T18:59:39Z</time>
      </trkpt>
      <trkpt lat="51.213052517793" lon="4.473585488706">
        <ele>4</ele>
        <time>2020-06-09T18:59:54Z</time>
      </trkpt>
      <trkpt lat="51.212765102442" lon="4.47284670804">
        <ele>6.2</ele>
        <time>2020-06-09T19:00:08Z</time>
      </trkpt>
      <trkpt lat="51.212448601898" lon="4.472124607355">
        <ele>7.4</ele>
        <time>2020-06-09T19:00:24Z</time>
      </trkpt>
      <trkpt lat="51.21242915589" lon="4.471993765896">
        <ele>8.6</ele>
        <time>2020-06-09T19:00:27Z</time>
      </trkpt>
      <trkpt lat="51.212647420566" lon="4.471226067675">
        <ele>6</ele>
        <time>2020-06-09T19:00:47Z</time>
      </trkpt>
      <trkpt lat="51.212341816492" lon="4.470618715201">
        <ele>8</ele>
        <time>2020-06-09T19:01:05Z</time>
      </trkpt>
      <trkpt lat="51.211794394603" lon="4.470414867393">
        <ele>10.2</ele>
        <time>2020-06-09T19:01:25Z</time>
      </trkpt>
      <trkpt lat="51.211593815736" lon="4.469620766187">
        <ele>11.8</ele>
        <time>2020-06-09T19:01:42Z</time>
      </trkpt>
      <trkpt lat="51.21153564535" lon="4.468739828497">
        <ele>10.4</ele>
        <time>2020-06-09T19:01:59Z</time>
      </trkpt>
      <trkpt lat="51.211620721635" lon="4.467850592726">
        <ele>4.8</ele>
        <time>2020-06-09T19:02:16Z</time>
      </trkpt>
      <trkpt lat="51.211650896475" lon="4.466977450203">
        <ele>4.2</ele>
        <time>2020-06-09T19:02:34Z</time>
      </trkpt>
      <trkpt lat="51.211598844876" lon="4.466106403155">
        <ele>2.8</ele>
        <time>2020-06-09T19:02:51Z</time>
      </trkpt>
      <trkpt lat="51.211568502398" lon="4.46566928707">
        <ele>5.6</ele>
        <time>2020-06-09T19:03:03Z</time>
      </trkpt>
      <trkpt lat="51.212241736606" lon="4.465448759281">
        <ele>6.8</ele>
        <time>2020-06-09T19:03:36Z</time>
      </trkpt>
      <trkpt lat="51.212773903437" lon="4.465225130189">
        <ele>14.2</ele>
        <time>2020-06-09T19:03:57Z</time>
      </trkpt>
      <trkpt lat="51.213285702251" lon="4.465483627985">
        <ele>11.6</ele>
        <time>2020-06-09T19:04:15Z</time>
      </trkpt>
      <trkpt lat="51.213788783889" lon="4.465226890388">
        <ele>10.2</ele>
        <time>2020-06-09T19:04:35Z</time>
      </trkpt>
      <trkpt lat="51.214320783082" lon="4.46503813">
        <ele>0.4</ele>
        <time>2020-06-09T19:04:54Z</time>
      </trkpt>
      <trkpt lat="51.214857476139" lon="4.464783906973">
        <ele>4.6</ele>
        <time>2020-06-09T19:05:11Z</time>
      </trkpt>
      <trkpt lat="51.215349661307" lon="4.46432818307">
        <ele>2.8</ele>
        <time>2020-06-09T19:05:27Z</time>
      </trkpt>
      <trkpt lat="51.215859616103" lon="4.464255679635">
        <ele>6.4</ele>
        <time>2020-06-09T19:05:41Z</time>
      </trkpt>
      <trkpt lat="51.215938573601" lon="4.464333966581">
        <ele>5.8</ele>
        <time>2020-06-09T19:05:44Z</time>
      </trkpt>
      <trkpt lat="51.216057261305" lon="4.464333715124">
        <ele>5</ele>
        <time>2020-06-09T19:05:49Z</time>
      </trkpt>
      <trkpt lat="51.216540645478" lon="4.464733783211">
        <ele>9</ele>
        <time>2020-06-09T19:06:10Z</time>
      </trkpt>
      <trkpt lat="51.216934175683" lon="4.465366616661">
        <ele>7</ele>
        <time>2020-06-09T19:06:30Z</time>
      </trkpt>
      <trkpt lat="51.21718588414" lon="4.466126268258">
        <ele>8.2</ele>
        <time>2020-06-09T19:06:50Z</time>
      </trkpt>
      <trkpt lat="51.217322090015" lon="4.466979210402">
        <ele>7.8</ele>
        <time>2020-06-09T19:07:09Z</time>
      </trkpt>
      <trkpt lat="51.2178430251" lon="4.467088426559">
        <ele>17.6</ele>
        <time>2020-06-09T19:07:34Z</time>
      </trkpt>
      <trkpt lat="51.218388938247" lon="4.467093120423">
        <ele>20.6</ele>
        <time>2020-06-09T19:07:54Z</time>
      </trkpt>
      <trkpt lat="51.21895362685" lon="4.46708498998">
        <ele>23.6</ele>
        <time>2020-06-09T19:08:18Z</time>
      </trkpt>
      <trkpt lat="51.219394766247" lon="4.467044924498">
        <ele>15.4</ele>
        <time>2020-06-09T19:08:33Z</time>
      </trkpt>
      <trkpt lat="51.219529631018" lon="4.46786702125">
        <ele>9.2</ele>
        <time>2020-06-09T19:08:53Z</time>
      </trkpt>
      <trkpt lat="51.219715206284" lon="4.468688279812">
        <ele>18.8</ele>
        <time>2020-06-09T19:09:16Z</time>
      </trkpt>
      <trkpt lat="51.219712943171" lon="4.468805710231">
        <ele>21</ele>
        <time>2020-06-09T19:09:20Z</time>
      </trkpt>
      <trkpt lat="51.219161917065" lon="4.468823479859">
        <ele>17</ele>
        <time>2020-06-09T19:09:43Z</time>
      </trkpt>
      <trkpt lat="51.218635198469" lon="4.468641760267">
        <ele>17.8</ele>
        <time>2020-06-09T19:10:03Z</time>
      </trkpt>
      <trkpt lat="51.218520366439" lon="4.468347890853">
        <ele>10.8</ele>
        <time>2020-06-09T19:10:13Z</time>
      </trkpt>
      <trkpt lat="51.217978560423" lon="4.468248900614">
        <ele>13.8</ele>
        <time>2020-06-09T19:10:29Z</time>
      </trkpt>
      <trkpt lat="51.217634399609" lon="4.468054356715">
        <ele>11.6</ele>
        <time>2020-06-09T19:10:43Z</time>
      </trkpt>
      <trkpt lat="51.21758234801" lon="4.467205354064">
        <ele>13.4</ele>
        <time>2020-06-09T19:11:06Z</time>
      </trkpt>
      <trkpt lat="51.21764018312" lon="4.466345538762">
        <ele>9.4</ele>
        <time>2020-06-09T19:11:25Z</time>
      </trkpt>
      <trkpt lat="51.217689552511" lon="4.465479520854">
        <ele>9.8</ele>
        <time>2020-06-09T19:11:49Z</time>
      </trkpt>
      <trkpt lat="51.217757194444" lon="4.464627500719">
        <ele>13.2</ele>
        <time>2020-06-09T19:12:08Z</time>
      </trkpt>
      <trkpt lat="51.217813101717" lon="4.463734660731">
        <ele>11.6</ele>
        <time>2020-06-09T19:12:25Z</time>
      </trkpt>
      <trkpt lat="51.217853837751" lon="4.462861266751">
        <ele>7.4</ele>
        <time>2020-06-09T19:12:41Z</time>
      </trkpt>
      <trkpt lat="51.217871355922" lon="4.461982424536">
        <ele>8.6</ele>
        <time>2020-06-09T19:12:57Z</time>
      </trkpt>
      <trkpt lat="51.217845791127" lon="4.461447072583">
        <ele>8.2</ele>
        <time>2020-06-09T19:13:08Z</time>
      </trkpt>
      <trkpt lat="51.217789967673" lon="4.461420166684">
        <ele>8.6</ele>
        <time>2020-06-09T19:13:10Z</time>
      </trkpt>
      <trkpt lat="51.217278671773" lon="4.461706660026">
        <ele>2.6</ele>
        <time>2020-06-09T19:13:25Z</time>
      </trkpt>
      <trkpt lat="51.216775087221" lon="4.462091808331">
        <ele>2.6</ele>
        <time>2020-06-09T19:13:38Z</time>
      </trkpt>
      <trkpt lat="51.216245686417" lon="4.462438818991">
        <ele>1.4</ele>
        <time>2020-06-09T19:13:54Z</time>
      </trkpt>
      <trkpt lat="51.215749645575" lon="4.462793624818">
        <ele>0</ele>
        <time>2020-06-09T19:14:09Z</time>
      </trkpt>
      <trkpt lat="51.215260394072" lon="4.463194195819">
        <ele>5.2</ele>
        <time>2020-06-09T19:14:24Z</time>
      </trkpt>
      <trkpt lat="51.214729400707" lon="4.463449005579">
        <ele>5.8</ele>
        <time>2020-06-09T19:14:40Z</time>
      </trkpt>
      <trkpt lat="51.214171082348" lon="4.463568866749">
        <ele>7.8</ele>
        <time>2020-06-09T19:14:56Z</time>
      </trkpt>
      <trkpt lat="51.213634808386" lon="4.463690823394">
        <ele>3.8</ele>
        <time>2020-06-09T19:15:13Z</time>
      </trkpt>
      <trkpt lat="51.213088140868" lon="4.463819653197">
        <ele>4</ele>
        <time>2020-06-09T19:15:30Z</time>
      </trkpt>
      <trkpt lat="51.212539126418" lon="4.463956445805">
        <ele>7.4</ele>
        <time>2020-06-09T19:15:44Z</time>
      </trkpt>
      <trkpt lat="51.212004277379" lon="4.464094244241">
        <ele>5</ele>
        <time>2020-06-09T19:16:00Z</time>
      </trkpt>
      <trkpt lat="51.211659948927" lon="4.464097848458">
        <ele>5</ele>
        <time>2020-06-09T19:16:14Z</time>
      </trkpt>
      <trkpt lat="51.211680065487" lon="4.4640490658">
        <ele>4.4</ele>
        <time>2020-06-09T19:16:18Z</time>
      </trkpt>
      <trkpt lat="51.211686016636" lon="4.463979663668">
        <ele>4</ele>
        <time>2020-06-09T19:16:21Z</time>
      </trkpt>
      <trkpt lat="51.211719711874" lon="4.463913865753">
        <ele>4</ele>
        <time>2020-06-09T19:16:27Z</time>
      </trkpt>
      <trkpt lat="51.211946442269" lon="4.463267621263">
        <ele>8</ele>
        <time>2020-06-09T19:16:48Z</time>
      </trkpt>
      <trkpt lat="51.212324801235" lon="4.462605534982">
        <ele>11</ele>
        <time>2020-06-09T19:17:11Z</time>
      </trkpt>
      <trkpt lat="51.212702322011" lon="4.461990638798">
        <ele>9.2</ele>
        <time>2020-06-09T19:17:29Z</time>
      </trkpt>
      <trkpt lat="51.213131223834" lon="4.461442630176">
        <ele>14.4</ele>
        <time>2020-06-09T19:17:47Z</time>
      </trkpt>
      <trkpt lat="51.213574458706" lon="4.460943236574">
        <ele>23.6</ele>
        <time>2020-06-09T19:18:04Z</time>
      </trkpt>
      <trkpt lat="51.214048706608" lon="4.460430934846">
        <ele>16.4</ele>
        <time>2020-06-09T19:18:21Z</time>
      </trkpt>
      <trkpt lat="51.214372415586" lon="4.460202528071">
        <ele>11</ele>
        <time>2020-06-09T19:18:33Z</time>
      </trkpt>
      <trkpt lat="51.21463611016" lon="4.460577534277">
        <ele>9.4</ele>
        <time>2020-06-09T19:18:47Z</time>
      </trkpt>
      <trkpt lat="51.215071885141" lon="4.460827482535">
        <ele>8.4</ele>
        <time>2020-06-09T19:19:13Z</time>
      </trkpt>
      <trkpt lat="51.215550156355" lon="4.461170050788">
        <ele>9.8</ele>
        <time>2020-06-09T19:19:37Z</time>
      </trkpt>
      <trkpt lat="51.215922228896" lon="4.461124285614">
        <ele>10</ele>
        <time>2020-06-09T19:19:52Z</time>
      </trkpt>
      <trkpt lat="51.216078467512" lon="4.46126040767">
        <ele>7.8</ele>
        <time>2020-06-09T19:20:03Z</time>
      </trkpt>
      <trkpt lat="51.216287260641" lon="4.460797391514">
        <ele>10</ele>
        <time>2020-06-09T19:20:27Z</time>
      </trkpt>
      <trkpt lat="51.216302850975" lon="4.460773838375">
        <ele>12.8</ele>
        <time>2020-06-09T19:21:11Z</time>
      </trkpt>
      <trkpt lat="51.216330427426" lon="4.460710638849">
        <ele>11</ele>
        <time>2020-06-09T19:21:16Z</time>
      </trkpt>
      <trkpt lat="51.216698392836" lon="4.460034219519">
        <ele>9.4</ele>
        <time>2020-06-09T19:21:49Z</time>
      </trkpt>
      <trkpt lat="51.216974241165" lon="4.459264509642">
        <ele>10</ele>
        <time>2020-06-09T19:22:08Z</time>
      </trkpt>
      <trkpt lat="51.217385289541" lon="4.458695881546">
        <ele>8.4</ele>
        <time>2020-06-09T19:22:28Z</time>
      </trkpt>
      <trkpt lat="51.217736910246" lon="4.45800487771">
        <ele>7.6</ele>
        <time>2020-06-09T19:22:48Z</time>
      </trkpt>
      <trkpt lat="51.218072353884" lon="4.457309599105">
        <ele>11.2</ele>
        <time>2020-06-09T19:23:07Z</time>
      </trkpt>
      <trkpt lat="51.218149635002" lon="4.456425643931">
        <ele>10.8</ele>
        <time>2020-06-09T19:23:25Z</time>
      </trkpt>
      <trkpt lat="51.218203614438" lon="4.455537078712">
        <ele>15.6</ele>
        <time>2020-06-09T19:23:41Z</time>
      </trkpt>
      <trkpt lat="51.218218953315" lon="4.454670306433">
        <ele>18.4</ele>
        <time>2020-06-09T19:23:54Z</time>
      </trkpt>
      <trkpt lat="51.21823362164" lon="4.45379632572">
        <ele>15.2</ele>
        <time>2020-06-09T19:24:10Z</time>
      </trkpt>
      <trkpt lat="51.218285924696" lon="4.452899127144">
        <ele>9.8</ele>
        <time>2020-06-09T19:24:28Z</time>
      </trkpt>
      <trkpt lat="51.218338143933" lon="4.452001090378">
        <ele>5.8</ele>
        <time>2020-06-09T19:24:43Z</time>
      </trkpt>
      <trkpt lat="51.218451215764" lon="4.451837224233">
        <ele>5</ele>
        <time>2020-06-09T19:24:47Z</time>
      </trkpt>
      <trkpt lat="51.218973994867" lon="4.451882151217">
        <ele>6.4</ele>
        <time>2020-06-09T19:25:01Z</time>
      </trkpt>
      <trkpt lat="51.219133250967" lon="4.452121957376">
        <ele>9</ele>
        <time>2020-06-09T19:25:10Z</time>
      </trkpt>
      <trkpt lat="51.219157558477" lon="4.452099996798">
        <ele>8.6</ele>
        <time>2020-06-09T19:25:12Z</time>
      </trkpt>
      <trkpt lat="51.219196534312" lon="4.452067894121">
        <ele>8.6</ele>
        <time>2020-06-09T19:25:14Z</time>
      </trkpt>
      <trkpt lat="51.219741693088" lon="4.452045179172">
        <ele>18.4</ele>
        <time>2020-06-09T19:25:41Z</time>
      </trkpt>
      <trkpt lat="51.220307052243" lon="4.451945434562">
        <ele>26.2</ele>
        <time>2020-06-09T19:26:02Z</time>
      </trkpt>
      <trkpt lat="51.220864783869" lon="4.451818532596">
        <ele>23.4</ele>
        <time>2020-06-09T19:26:15Z</time>
      </trkpt>
      <trkpt lat="51.221416061432" lon="4.451655253184">
        <ele>21</ele>
        <time>2020-06-09T19:26:30Z</time>
      </trkpt>
      <trkpt lat="51.221757037124" lon="4.451516281282">
        <ele>17.8</ele>
        <time>2020-06-09T19:26:38Z</time>
      </trkpt>
      <trkpt lat="51.221987455555" lon="4.451342608314">
        <ele>15</ele>
        <time>2020-06-09T19:26:43Z</time>
      </trkpt>
      <trkpt lat="51.222542588792" lon="4.451117973394">
        <ele>9.2</ele>
        <time>2020-06-09T19:26:57Z</time>
      </trkpt>
      <trkpt lat="51.223083808075" lon="4.451139514877">
        <ele>6.2</ele>
        <time>2020-06-09T19:27:11Z</time>
      </trkpt>
      <trkpt lat="51.22348991113" lon="4.45126918287">
        <ele>4.6</ele>
        <time>2020-06-09T19:27:22Z</time>
      </trkpt>
      <trkpt lat="51.223951586182" lon="4.451790117955">
        <ele>3.4</ele>
        <time>2020-06-09T19:27:38Z</time>
      </trkpt>
      <trkpt lat="51.224485513212" lon="4.452041574955">
        <ele>1.6</ele>
        <time>2020-06-09T19:27:55Z</time>
      </trkpt>
      <trkpt lat="51.22457201442" lon="4.452089603242">
        <ele>0</ele>
        <time>2020-06-09T19:27:59Z</time>
      </trkpt>
      <trkpt lat="51.224077733777" lon="4.452534346856">
        <ele>1.2</ele>
        <time>2020-06-09T19:28:16Z</time>
      </trkpt>
      <trkpt lat="51.223941946997" lon="4.452662087012">
        <ele>1.8</ele>
        <time>2020-06-09T19:28:21Z</time>
      </trkpt>
      <trkpt lat="51.223947730508" lon="4.452743223804">
        <ele>1.8</ele>
        <time>2020-06-09T19:28:23Z</time>
      </trkpt>
      <trkpt lat="51.223990478198" lon="4.452785217123">
        <ele>1.8</ele>
        <time>2020-06-09T19:28:25Z</time>
      </trkpt>
      <trkpt lat="51.224194409825" lon="4.452666948514">
        <ele>2.2</ele>
        <time>2020-06-09T19:28:33Z</time>
      </trkpt>
      <trkpt lat="51.224189632142" lon="4.45256502461">
        <ele>2.8</ele>
        <time>2020-06-09T19:28:35Z</time>
      </trkpt>
      <trkpt lat="51.224134060145" lon="4.452517415418">
        <ele>2.4</ele>
        <time>2020-06-09T19:28:37Z</time>
      </trkpt>
      <trkpt lat="51.223947730508" lon="4.452711121127">
        <ele>3.2</ele>
        <time>2020-06-09T19:28:44Z</time>
      </trkpt>
      <trkpt lat="51.223971199828" lon="4.452787815512">
        <ele>2.8</ele>
        <time>2020-06-09T19:28:46Z</time>
      </trkpt>
      <trkpt lat="51.224016629726" lon="4.452799382534">
        <ele>2.8</ele>
        <time>2020-06-09T19:28:48Z</time>
      </trkpt>
      <trkpt lat="51.224102041287" lon="4.452708019824">
        <ele>4.2</ele>
        <time>2020-06-09T19:28:52Z</time>
      </trkpt>
      <trkpt lat="51.224206144485" lon="4.452640629348">
        <ele>3.8</ele>
        <time>2020-06-09T19:28:56Z</time>
      </trkpt>
      <trkpt lat="51.22416130132" lon="4.452508530604">
        <ele>3.4</ele>
        <time>2020-06-09T19:29:00Z</time>
      </trkpt>
      <trkpt lat="51.224011935862" lon="4.45263962352">
        <ele>3.6</ele>
        <time>2020-06-09T19:29:06Z</time>
      </trkpt>
      <trkpt lat="51.224034650811" lon="4.452724867443">
        <ele>3.2</ele>
        <time>2020-06-09T19:29:08Z</time>
      </trkpt>
      <trkpt lat="51.224210335435" lon="4.452553960502">
        <ele>3.6</ele>
        <time>2020-06-09T19:29:15Z</time>
      </trkpt>
      <trkpt lat="51.224225506674" lon="4.452438541739">
        <ele>3.6</ele>
        <time>2020-06-09T19:29:17Z</time>
      </trkpt>
      <trkpt lat="51.225168135148" lon="4.452324296442">
        <ele>5</ele>
        <time>2020-06-09T19:29:50Z</time>
      </trkpt>
      <trkpt lat="51.225186742966" lon="4.452397135153">
        <ele>5</ele>
        <time>2020-06-09T19:29:52Z</time>
      </trkpt>
      <trkpt lat="51.225104516527" lon="4.453248065641">
        <ele>3.6</ele>
        <time>2020-06-09T19:30:13Z</time>
      </trkpt>
      <trkpt lat="51.225115496816" lon="4.453272205513">
        <ele>3.8</ele>
        <time>2020-06-09T19:30:14Z</time>
      </trkpt>
      <trkpt lat="51.225683035265" lon="4.453344708948">
        <ele>3</ele>
        <time>2020-06-09T19:30:33Z</time>
      </trkpt>
      <trkpt lat="51.226248562058" lon="4.453371447209">
        <ele>11.6</ele>
        <time>2020-06-09T19:30:49Z</time>
      </trkpt>
      <trkpt lat="51.226734293163" lon="4.453359125816">
        <ele>7.8</ele>
        <time>2020-06-09T19:31:06Z</time>
      </trkpt>
      <trkpt lat="51.226856752722" lon="4.452487324397">
        <ele>6.8</ele>
        <time>2020-06-09T19:31:21Z</time>
      </trkpt>
      <trkpt lat="51.226940320265" lon="4.451588784717">
        <ele>11.8</ele>
        <time>2020-06-09T19:31:37Z</time>
      </trkpt>
      <trkpt lat="51.226972758218" lon="4.450693849254">
        <ele>14.2</ele>
        <time>2020-06-09T19:31:55Z</time>
      </trkpt>
      <trkpt lat="51.227000167031" lon="4.449812995383">
        <ele>14.2</ele>
        <time>2020-06-09T19:32:12Z</time>
      </trkpt>
      <trkpt lat="51.227021792333" lon="4.448933734073">
        <ele>16.6</ele>
        <time>2020-06-09T19:32:35Z</time>
      </trkpt>
      <trkpt lat="51.227370395554" lon="4.448249938671">
        <ele>10.6</ele>
        <time>2020-06-09T19:32:54Z</time>
      </trkpt>
      <trkpt lat="51.227755962954" lon="4.44760629257">
        <ele>0.2</ele>
        <time>2020-06-09T19:33:12Z</time>
      </trkpt>
      <trkpt lat="51.228163239475" lon="4.446990977291">
        <ele>0.2</ele>
        <time>2020-06-09T19:33:28Z</time>
      </trkpt>
      <trkpt lat="51.228557188775" lon="4.44636074223">
        <ele>0</ele>
        <time>2020-06-09T19:33:44Z</time>
      </trkpt>
      <trkpt lat="51.228947617677" lon="4.445731932092">
        <ele>0</ele>
        <time>2020-06-09T19:33:59Z</time>
      </trkpt>
      <trkpt lat="51.22935724113" lon="4.445105301248">
        <ele>0</ele>
        <time>2020-06-09T19:34:15Z</time>
      </trkpt>
      <trkpt lat="51.229701066668" lon="4.444690481017">
        <ele>0</ele>
        <time>2020-06-09T19:34:32Z</time>
      </trkpt>
      <trkpt lat="51.22975035224" lon="4.444755021647">
        <ele>3.8</ele>
        <time>2020-06-09T19:34:39Z</time>
      </trkpt>
      <trkpt lat="51.229973897513" lon="4.445566724843">
        <ele>4</ele>
        <time>2020-06-09T19:34:59Z</time>
      </trkpt>
      <trkpt lat="51.230223259038" lon="4.446380691152">
        <ele>4</ele>
        <time>2020-06-09T19:35:15Z</time>
      </trkpt>
      <trkpt lat="51.230466082681" lon="4.447207900863">
        <ele>4.2</ele>
        <time>2020-06-09T19:35:30Z</time>
      </trkpt>
      <trkpt lat="51.230680156407" lon="4.448003091716">
        <ele>4.6</ele>
        <time>2020-06-09T19:35:45Z</time>
      </trkpt>
      <trkpt lat="51.23088861426" lon="4.448851088539">
        <ele>4.4</ele>
        <time>2020-06-09T19:36:00Z</time>
      </trkpt>
      <trkpt lat="51.231056922812" lon="4.449716938809">
        <ele>4.6</ele>
        <time>2020-06-09T19:36:14Z</time>
      </trkpt>
      <trkpt lat="51.231163289123" lon="4.450026901471">
        <ele>4.6</ele>
        <time>2020-06-09T19:36:20Z</time>
      </trkpt>
      <trkpt lat="51.230921890403" lon="4.450594942834">
        <ele>4.6</ele>
        <time>2020-06-09T19:36:35Z</time>
      </trkpt>
      <trkpt lat="51.23042677157" lon="4.450715390737">
        <ele>7.8</ele>
        <time>2020-06-09T19:36:55Z</time>
      </trkpt>
      <trkpt lat="51.229878846767" lon="4.450886046221">
        <ele>4</ele>
        <time>2020-06-09T19:37:13Z</time>
      </trkpt>
      <trkpt lat="51.229686985076" lon="4.450914125586">
        <ele>5.6</ele>
        <time>2020-06-09T19:37:19Z</time>
      </trkpt>
      <trkpt lat="51.22954667207" lon="4.450066212582">
        <ele>7.8</ele>
        <time>2020-06-09T19:37:33Z</time>
      </trkpt>
      <trkpt lat="51.229432007678" lon="4.449200110855">
        <ele>15.8</ele>
        <time>2020-06-09T19:37:49Z</time>
      </trkpt>
      <trkpt lat="51.229168396923" lon="4.448491505029">
        <ele>23.4</ele>
        <time>2020-06-09T19:38:06Z</time>
      </trkpt>
      <trkpt lat="51.228830690172" lon="4.447965205528">
        <ele>16.4</ele>
        <time>2020-06-09T19:38:21Z</time>
      </trkpt>
      <trkpt lat="51.229119278989" lon="4.448452110099">
        <ele>6.2</ele>
        <time>2020-06-09T19:38:39Z</time>
      </trkpt>
      <trkpt lat="51.22891886776" lon="4.448655119717">
        <ele>0</ele>
        <time>2020-06-09T19:38:49Z</time>
      </trkpt>
      <trkpt lat="51.228931189153" lon="4.448609689819">
        <ele>2.4</ele>
        <time>2020-06-09T19:38:54Z</time>
      </trkpt>
      <trkpt lat="51.229051469418" lon="4.448440459258">
        <ele>0</ele>
        <time>2020-06-09T19:39:03Z</time>
      </trkpt>
      <trkpt lat="51.22914434087" lon="4.448560404247">
        <ele>6.6</ele>
        <time>2020-06-09T19:39:11Z</time>
      </trkpt>
      <trkpt lat="51.229066556838" lon="4.448469376813">
        <ele>10.8</ele>
        <time>2020-06-09T19:39:16Z</time>
      </trkpt>
      <trkpt lat="51.228667159303" lon="4.449076142554">
        <ele>5.4</ele>
        <time>2020-06-09T19:39:29Z</time>
      </trkpt>
      <trkpt lat="51.228605887614" lon="4.449077818934">
        <ele>6</ele>
        <time>2020-06-09T19:39:31Z</time>
      </trkpt>
      <trkpt lat="51.228636649187" lon="4.448962567809">
        <ele>6.8</ele>
        <time>2020-06-09T19:39:34Z</time>
      </trkpt>
      <trkpt lat="51.228773525614" lon="4.448880928103">
        <ele>7.2</ele>
        <time>2020-06-09T19:39:39Z</time>
      </trkpt>
      <trkpt lat="51.228798587495" lon="4.448959298868">
        <ele>7.4</ele>
        <time>2020-06-09T19:39:42Z</time>
      </trkpt>
      <trkpt lat="51.228593817678" lon="4.449188711471">
        <ele>5.4</ele>
        <time>2020-06-09T19:39:50Z</time>
      </trkpt>
    </trkseg>
  </trk>
</gpx>